2012 Sigge's P'ayakentsut | Zone4.ca



2012 Sigge's P'ayakentsut

Date: Feb 25, 2012
Official  Results
Location: Whistler Olympic Park
Host Club: Callaghan Valley Cross Country

Jury
Technical Delegate:  Rob Bernhardt 
Chief of Competition:  Dirk Rohde 
Chief of Timing:  Elizabeth Hardy 
Chief of Course:  Theresa Oswald 
Race Secretary:  Nicola Kilfoy 
Obs. Time: 10:00
Wind Vel: Light Wind Dir: Nil
Air Temp: -1 C Snow Temp:
Weather: Snowing Snow Cond: 20 cm new

Payak 15 F 15 km. Free Mass Start  15 km Loppet for Adults  
PL Bib Name SubCategory Rnk Time Diff
1 389 Adriene Underhill 15 km - 18-24 F 1/1 0:57:08.2  
2 434 Melanie Levesque 15 km - 25-29 F 1/2 1:00:21.7 +3:13.5
3 437 Lisa Brougham 15 km - 40-44 F 1/10 1:06:40.3 +9:32.1
4 447 Heather King 15 km - 35-39 F 1/9 1:07:32.8 +10:24.6
5 415 Nicola Ingram 15 km - 45-49 F 1/19 1:07:51.0 +10:42.8
6 433 Joanne Woods 15 km - 50-54 F 1/11 1:07:58.8 +10:50.6
7 409 Laura O'Neill 15 km - 30-34 F 1/6 1:08:12.0 +11:03.8
8 403 Killaine Sharman 15 km - 45-49 F 2/19 1:09:19.7 +12:11.5
9 381 Sara Hamilton 15 km - 40-44 F 2/10 1:10:18.8 +13:10.6
10 396 Natalie Zinetti 15 km - 45-49 F 3/19 1:10:34.8 +13:26.6
11 426 Ariane Noel de Tilly 15 km - 30-34 F 2/6 1:12:00.5 +14:52.3
12 431 Dawn Hunter 15 km - 35-39 F 2/9 1:12:37.0 +15:28.8
13 411 Susan Hollenberg 15 km - 45-49 F 4/19 1:15:28.5 +18:20.3
14 410 Sarah Helmel 15 km - 35-39 F 3/9 1:16:18.7 +19:10.5
15 407 Jane Corrigan 15 km - 45-49 F 5/19 1:16:41.2 +19:33.0
16 416 Jennie French 15 km - 35-39 F 4/9 1:17:59.8 +20:51.6
17 374 Isabelle Poirier 15 km - 40-44 F 3/10 1:18:01.4 +20:53.2
18 405 Kitty Brodie 15 km - 45-49 F 6/19 1:18:28.7 +21:20.5
19 427 Stephanie Petersen 15 km - 40-44 F 4/10 1:18:48.3 +21:40.1
20 406 Patricia Guilherme 15 km - 45-49 F 7/19 1:20:09.8 +23:01.6
21 378 Jennifer Shin 15 km - 45-49 F 8/19 1:20:50.3 +23:42.1
22 398 Clare Connolly 15 km - 45-49 F 9/19 1:21:05.7 +23:57.5
23 392 kate clark 15 km - 55-59 F 1/4 1:21:08.4 +24:00.2
24 375 Helle Wilburn 15 km - 60-64 F 1/6 1:21:31.6 +24:23.4
25 417 Marie-France Dubois 15 km - 45-49 F 10/19 1:22:09.3 +25:01.1
26 414 Coralie Beauchamp 15 km - 35-39 F 5/9 1:23:38.7 +26:30.5
27 387 Viviane Nishikiori 15 km - 30-34 F 3/6 1:24:39.7 +27:31.5
28 379 Joanne Chang 15 km - 45-49 F 11/19 1:24:45.8 +27:37.6
29 444 Cheeying Ho 15 km - 45-49 F 12/19 1:25:01.6 +27:53.4
30 390 Lynn Ayers 15 km - 40-44 F 5/10 1:25:18.9 +28:10.7
31 371 Heather Evans 15 km - 35-39 F 6/9 1:27:52.4 +30:44.2
32 436 Paula Burgerjon 15 km - 50-54 F 2/11 1:30:14.4 +33:06.2
33 432 Leslie Fierling 15 km - 50-54 F 3/11 1:30:50.0 +33:41.8
34 408 Marcia Smith 15 km - 50-54 F 4/11 1:31:57.8 +34:49.6
35 441 Susan Bilbey 15 km - 35-39 F 7/9 1:33:33.6 +36:25.4
36 376 Angela Bleach 15 km - 50-54 F 5/11 1:36:21.3 +39:13.1
37 412 Dominique Barabe 15 km - 45-49 F 13/19 1:36:37.7 +39:29.5
38 443 Jeannie Bates 15 km - 60-64 F 2/6 1:37:29.2 +40:21.0
39 413 Laura Todd 15 km - 30-34 F 4/6 1:37:58.4 +40:50.2
40 383 Michelle Bentall 15 km - 40-44 F 6/10 1:38:42.2 +41:34.0
41 442 Gillian Vandermeirsch 15 km - 40-44 F 7/10 1:39:54.2 +42:46.0
42 384 Patti Romanko 15 km - 50-54 F 6/11 1:39:59.4 +42:51.2
43 446 Iris Barrington Leigh 15 km - 60-64 F 3/6 1:40:08.7 +43:00.5
44 393 Karen Jarvis 15 km - 50-54 F 7/11 1:43:14.4 +46:06.2
45 402 Daphne Hall 15 km - 25-29 F 2/2 1:43:28.0 +46:19.8
46 438 Gail Forshaw 15 km - 60-64 F 4/6 1:44:06.9 +46:58.7
47 382 Jane Gardiner 15 km - 45-49 F 14/19 1:44:40.0 +47:31.8
48 429 Janette Lindley 15 km - 55-59 F 2/4 1:44:40.3 +47:32.1
49 422 Karen Snyder 15 km - 45-49 F 15/19 1:45:07.5 +47:59.3
50 373 Angela Duso 15 km - 35-39 F 8/9 1:47:31.5 +50:23.3
51 372 Pam Glassby 15 km - 50-54 F 8/11 1:47:39.5 +50:31.3
52 419 Maureen Fitzgerald 15 km - 50-54 F 9/11 1:49:11.4 +52:03.2
53 445 Anastasia Nicholas 15 km - 50-54 F 10/11 1:49:55.0 +52:46.8
54 435 Lucie Vermette 15 km - 45-49 F 16/19 1:50:15.0 +53:06.8
55 380 Joan Swain 15 km - 50-54 F 11/11 1:50:44.1 +53:35.9
56 404 Vienne Chan 15 km - 30-34 F 5/6 1:51:53.0 +54:44.8
57 418 Marnie Goldenberg 15 km - 40-44 F 8/10 1:51:53.3 +54:45.1
58 425 Jutta Zeisler 15 km - 40-44 F 9/10 1:57:46.3 +1:00:38.1
59 401 Lesley Anderson 15 km - 55-59 F 3/4 2:06:01.4 +1:08:53.2
60 395 Carla Halvorson Burke 15 km - 45-49 F 17/19 2:06:55.7 +1:09:47.5
61 420 Veronica Kacinik 15 km - 30-34 F 6/6 2:07:46.4 +1:10:38.2
62 399 Leah Scharf 15 km - 40-44 F 10/10 2:07:48.6 +1:10:40.4
63 428 Tiffany Duzita 15 km - 35-39 F 9/9 2:08:16.9 +1:11:08.7
64 439 Christine Mitamura 15 km - 45-49 F 18/19 2:13:03.9 +1:15:55.7
65 394 Terry Olynyk 15 km - 55-59 F 4/4 2:21:40.4 +1:24:32.2
66 430 Virginia Weiler 15 km - 45-49 F 19/19 2:23:25.0 +1:26:16.8
67 400 Midge Mason 15 km - 60-64 F 5/6 2:35:07.2 +1:37:59.0
68 423 Laura Gibson 15 km - 60-64 F 6/6 2:45:59.0 +1:48:50.8
DNF 385 Mary Hunter 15 km - 50-54 F * *** ***
DNF 397 Heather Campbell 15 km - 35-39 F * *** ***
DNS 377 Glynis Webster 15 km - 40-44 F * *** ***
DNS 386 Cheryl Klement 15 km - 45-49 F * *** ***
DNS 388 Sylvia von Minden 15 km - 45-49 F * *** ***
DNS 391 Paula Gill 15 km - 40-44 F * *** ***
DNS 421 Rosalind Barrington-Craggs 15 km - 40-44 F * *** ***
DNS 424 Magi Scallion 15 km - 30-34 F * *** ***
DNS 440 Christina Cook 15 km - 35-39 F * *** ***


Results are posted through an automated system by licenced clubs. For inquires about result corrections please contact the race organizer.

Copyright 2019 - Zone4 Systems zone4.ca       Privacy Policy     Delivery/Refund Policy     Terms of Service    Contact Zone4